createdAt,value
2023-05-12T00:00:46.722Z,0
2023-05-12T00:02:01.003Z,0
2023-05-12T00:03:15.298Z,0
2023-05-12T00:04:29.704Z,0
2023-05-12T00:05:44.025Z,0
2023-05-12T00:06:58.299Z,0
2023-05-12T00:08:12.579Z,0
2023-05-12T00:09:26.996Z,0
2023-05-12T00:10:41.316Z,0
2023-05-12T00:11:55.590Z,0
2023-05-12T00:13:09.871Z,0
2023-05-12T00:14:24.276Z,0
2023-05-12T00:15:38.611Z,0
2023-05-12T00:16:52.891Z,0
2023-05-12T00:18:07.171Z,0
2023-05-12T00:19:21.568Z,0
2023-05-12T00:20:35.905Z,0
2023-05-12T00:21:50.185Z,0
2023-05-12T00:23:04.463Z,0
2023-05-12T00:24:18.870Z,0
2023-05-12T00:25:33.186Z,0
2023-05-12T00:26:47.472Z,0
2023-05-12T00:28:01.749Z,0
2023-05-12T00:29:16.152Z,0
2023-05-12T00:30:30.478Z,0
2023-05-12T00:31:44.769Z,0
2023-05-12T00:32:59.048Z,1
2023-05-12T00:34:13.278Z,1
2023-05-12T00:35:27.630Z,0
2023-05-12T00:36:42.009Z,0
2023-05-12T00:37:56.349Z,0
2023-05-12T00:39:09.648Z,1
2023-05-12T00:40:24.007Z,1
2023-05-12T00:41:38.310Z,0
2023-05-12T00:42:52.580Z,0
2023-05-12T00:44:06.859Z,0
2023-05-12T00:45:21.264Z,0
2023-05-12T00:46:35.561Z,0
2023-05-12T00:47:49.840Z,0
2023-05-12T00:49:04.133Z,0
2023-05-12T00:50:18.497Z,1
2023-05-12T00:51:32.000Z,0
2023-05-12T00:52:47.062Z,0
2023-05-12T00:54:01.350Z,0
2023-05-12T00:55:15.755Z,0
2023-05-12T00:56:30.072Z,0
2023-05-12T00:57:44.351Z,0
2023-05-12T00:58:58.599Z,1
2023-05-12T01:00:12.961Z,0
2023-05-12T01:01:27.266Z,0
2023-05-12T01:02:41.561Z,0
2023-05-12T01:03:55.883Z,0
2023-05-12T01:05:10.158Z,0
2023-05-12T01:06:24.564Z,0
2023-05-12T01:07:38.892Z,0
2023-05-12T01:08:53.173Z,0
2023-05-12T01:10:07.507Z,0
2023-05-12T01:11:21.918Z,0
2023-05-12T01:12:36.249Z,0
2023-05-12T01:13:49.596Z,0
2023-05-12T01:15:03.879Z,0
2023-05-12T01:16:18.296Z,0
2023-05-12T01:17:32.532Z,1
2023-05-12T01:18:46.824Z,0
2023-05-12T01:20:01.149Z,0
2023-05-12T01:21:15.419Z,0
2023-05-12T01:22:29.827Z,0
2023-05-12T01:23:44.144Z,0
2023-05-12T01:24:58.439Z,0
2023-05-12T01:26:12.708Z,0
2023-05-12T01:27:27.112Z,0
2023-05-12T01:28:41.437Z,0
2023-05-12T01:29:55.715Z,0
2023-05-12T01:31:09.998Z,0
2023-05-12T01:32:24.421Z,0
2023-05-12T01:33:38.738Z,0
2023-05-12T01:34:53.019Z,0
2023-05-12T01:36:07.293Z,0
2023-05-12T01:37:21.696Z,0
2023-05-12T01:38:36.024Z,0
2023-05-12T01:39:50.313Z,0
2023-05-12T01:41:04.593Z,0
2023-05-12T01:42:19.003Z,0
2023-05-12T01:43:33.326Z,0
2023-05-12T01:44:47.654Z,0
2023-05-12T01:46:01.007Z,0
2023-05-12T01:47:15.341Z,0
2023-05-12T01:48:29.607Z,0
2023-05-12T01:49:43.898Z,0
2023-05-12T01:50:58.295Z,0
2023-05-12T01:52:12.642Z,0
2023-05-12T01:53:26.909Z,0
2023-05-12T01:54:41.180Z,0
2023-05-12T01:55:55.600Z,0
2023-05-12T01:57:09.919Z,0
2023-05-12T01:58:24.203Z,0
2023-05-12T01:59:38.470Z,0
2023-05-12T02:00:52.892Z,0
2023-05-12T02:02:07.203Z,0
2023-05-12T02:03:21.493Z,0
2023-05-12T02:04:35.762Z,0
2023-05-12T02:05:50.169Z,0
2023-05-12T02:07:04.493Z,0
2023-05-12T02:08:18.771Z,0
2023-05-12T02:09:33.064Z,0
2023-05-12T02:10:47.471Z,0
2023-05-12T02:12:01.785Z,0
2023-05-12T02:13:16.073Z,0
2023-05-12T02:14:30.344Z,0
2023-05-12T02:15:44.761Z,0
2023-05-12T02:16:59.140Z,0
2023-05-12T02:18:12.531Z,0
2023-05-12T02:19:25.937Z,0
2023-05-12T02:20:40.266Z,0
2023-05-12T02:21:54.606Z,0
2023-05-12T02:23:07.953Z,0
2023-05-12T02:24:22.365Z,0
2023-05-12T02:25:36.689Z,0
2023-05-12T02:26:50.963Z,0
2023-05-12T02:28:05.262Z,0
2023-05-12T02:29:19.663Z,0
2023-05-12T02:30:33.986Z,0
2023-05-12T02:31:48.270Z,0
2023-05-12T02:33:02.540Z,0
2023-05-12T02:34:16.955Z,0
2023-05-12T02:35:31.285Z,0
2023-05-12T02:36:45.547Z,0
2023-05-12T02:37:59.831Z,0
2023-05-12T02:39:14.250Z,0
2023-05-12T02:40:28.524Z,1
2023-05-12T02:41:42.869Z,1
2023-05-12T02:42:57.095Z,1
2023-05-12T02:44:11.324Z,1
2023-05-12T02:45:25.616Z,1
2023-05-12T02:46:39.872Z,1
2023-05-12T02:47:54.092Z,1
2023-05-12T02:49:08.376Z,0
2023-05-12T02:50:22.657Z,0
2023-05-12T02:51:37.063Z,0
2023-05-12T02:52:51.393Z,0
2023-05-12T02:54:05.657Z,0
2023-05-12T02:55:19.951Z,0
2023-05-12T02:56:34.347Z,0
2023-05-12T02:57:48.685Z,0
2023-05-12T02:59:02.967Z,0
2023-05-12T03:00:17.248Z,0
2023-05-12T03:01:31.642Z,0
2023-05-12T03:02:45.976Z,0
2023-05-12T03:04:00.263Z,0
2023-05-12T03:05:14.530Z,0
2023-05-12T03:06:28.848Z,1
2023-05-12T03:07:43.109Z,2
2023-05-12T03:08:57.318Z,3
2023-05-12T03:10:11.558Z,5
2023-05-12T03:11:25.787Z,2
2023-05-12T03:12:40.077Z,2
2023-05-12T03:13:54.310Z,4
2023-05-12T03:15:08.539Z,4
2023-05-12T03:16:22.770Z,5
2023-05-12T03:17:37.008Z,6
2023-05-12T03:18:51.308Z,8
2023-05-12T03:20:05.533Z,9
2023-05-12T03:21:19.758Z,10
2023-05-12T03:22:33.991Z,10
2023-05-12T03:23:48.211Z,13
2023-05-12T03:25:02.509Z,15
2023-05-12T03:26:16.769Z,20
2023-05-12T03:27:31.047Z,24
2023-05-12T03:28:44.385Z,28
2023-05-12T03:29:58.680Z,33
2023-05-12T03:31:12.953Z,38
2023-05-12T03:32:26.263Z,43
2023-05-12T03:33:40.485Z,47
2023-05-12T03:34:54.774Z,52
2023-05-12T03:36:09.015Z,57
2023-05-12T03:37:23.258Z,62
2023-05-12T03:38:37.484Z,66
2023-05-12T03:39:51.693Z,69
2023-05-12T03:41:06.010Z,74
2023-05-12T03:42:20.244Z,81
2023-05-12T03:43:34.477Z,95
2023-05-12T03:44:48.689Z,121
2023-05-12T03:46:02.929Z,127
2023-05-12T03:47:17.215Z,142
2023-05-12T03:48:31.469Z,153
2023-05-12T03:49:45.679Z,181
2023-05-12T03:50:59.924Z,212
2023-05-12T03:52:14.143Z,226
2023-05-12T03:53:28.437Z,254
2023-05-12T03:54:42.676Z,292
2023-05-12T03:55:56.913Z,321
2023-05-12T03:57:11.128Z,343
2023-05-12T03:58:25.361Z,358
2023-05-12T03:59:39.671Z,381
2023-05-12T04:00:53.896Z,403
2023-05-12T04:02:08.130Z,427
2023-05-12T04:03:22.408Z,463
2023-05-12T04:04:35.713Z,468
2023-05-12T04:05:49.960Z,500
2023-05-12T04:07:04.173Z,531
2023-05-12T04:08:18.415Z,561
2023-05-12T04:09:32.636Z,568
2023-05-12T04:10:46.940Z,603
2023-05-12T04:12:01.178Z,637
2023-05-12T04:13:15.393Z,684
2023-05-12T04:14:29.630Z,729
2023-05-12T04:15:43.848Z,736
2023-05-12T04:16:58.144Z,783
2023-05-12T04:18:12.402Z,820
2023-05-12T04:19:26.621Z,870
2023-05-12T04:20:40.837Z,924
2023-05-12T04:21:55.075Z,940
2023-05-12T04:23:09.380Z,982
2023-05-12T04:24:23.617Z,1010
2023-05-12T04:25:37.840Z,1052
2023-05-12T04:28:06.304Z,1107
2023-05-12T04:29:20.587Z,1154
2023-05-12T04:30:34.828Z,1204
2023-05-12T04:31:49.071Z,1248
2023-05-12T04:33:03.279Z,1276
2023-05-12T04:34:17.508Z,1293
2023-05-12T04:35:31.869Z,1351
2023-05-12T04:36:46.162Z,1397
2023-05-12T04:37:59.451Z,1438
2023-05-12T04:39:13.688Z,1459
2023-05-12T04:40:27.985Z,1509
2023-05-12T04:41:42.219Z,1537
2023-05-12T04:42:56.438Z,1580
2023-05-12T04:44:10.796Z,1629
2023-05-12T04:45:25.032Z,1653
2023-05-12T04:46:39.321Z,1691
2023-05-12T04:47:53.571Z,1737
2023-05-12T04:49:07.788Z,1783
2023-05-12T04:50:22.021Z,1807
2023-05-12T04:51:36.235Z,1813
2023-05-12T04:52:50.537Z,1846
2023-05-12T04:54:04.777Z,1869
2023-05-12T04:55:19.010Z,1869
2023-05-12T04:56:33.247Z,1867
2023-05-12T04:57:47.464Z,1862
2023-05-12T04:59:01.764Z,1904
2023-05-12T05:00:16.009Z,1911
2023-05-12T05:01:30.240Z,1945
2023-05-12T05:02:44.464Z,1986
2023-05-12T05:03:58.688Z,2008
2023-05-12T05:05:12.982Z,2015
2023-05-12T05:06:27.224Z,2046
2023-05-12T05:07:41.444Z,2065
2023-05-12T05:08:55.688Z,2051
2023-05-12T05:10:09.900Z,2048
2023-05-12T05:11:24.199Z,2082
2023-05-12T05:12:38.451Z,2164
2023-05-12T05:13:52.672Z,2222
2023-05-12T05:15:06.901Z,2195
2023-05-12T05:16:21.125Z,2205
2023-05-12T05:17:35.429Z,2190
2023-05-12T05:18:49.667Z,2225
2023-05-12T05:20:03.886Z,2256
2023-05-12T05:21:18.122Z,2301
2023-05-12T05:22:32.350Z,2318
2023-05-12T05:23:46.647Z,2372
2023-05-12T05:25:00.889Z,2383
2023-05-12T05:26:15.125Z,2391
2023-05-12T05:27:29.334Z,2413
2023-05-12T05:28:43.561Z,2414
2023-05-12T05:29:57.937Z,2452
2023-05-12T05:31:12.218Z,2430
2023-05-12T05:32:25.561Z,2462
2023-05-12T05:33:38.854Z,2467
2023-05-12T05:34:53.098Z,2500
2023-05-12T05:36:07.307Z,2567
2023-05-12T05:37:21.551Z,2589
2023-05-12T05:38:35.760Z,2568
2023-05-12T05:39:50.063Z,2585
2023-05-12T05:41:04.000Z,2572
2023-05-12T05:42:18.536Z,2495
2023-05-12T05:43:32.764Z,2451
2023-05-12T05:44:46.994Z,2442
2023-05-12T05:46:01.294Z,2357
2023-05-12T05:47:15.526Z,2319
2023-05-12T05:48:29.751Z,2324
2023-05-12T05:49:43.982Z,2349
2023-05-12T05:50:58.204Z,2354
2023-05-12T05:52:12.500Z,2341
2023-05-12T05:53:26.755Z,2439
2023-05-12T05:54:40.978Z,2633
2023-05-12T05:55:55.196Z,2880
2023-05-12T05:57:09.429Z,2986
2023-05-12T05:58:23.732Z,3110
2023-05-12T05:59:37.965Z,3199
2023-05-12T06:00:52.200Z,3228
2023-05-12T06:02:06.420Z,3265
2023-05-12T06:03:20.657Z,3280
2023-05-12T06:04:35.009Z,3285
2023-05-12T06:05:49.289Z,3292
2023-05-12T06:07:02.615Z,3335
2023-05-12T06:08:15.972Z,3408
2023-05-12T06:09:30.255Z,3557
2023-05-12T06:10:43.592Z,3661
2023-05-12T06:11:57.875Z,3657
2023-05-12T06:13:12.171Z,3745
2023-05-12T06:14:26.453Z,3889
2023-05-12T06:15:39.755Z,4014
2023-05-12T06:16:53.971Z,4092
2023-05-12T06:18:08.275Z,4007
2023-05-12T06:19:22.517Z,3973
2023-05-12T06:20:36.751Z,4004
2023-05-12T06:21:50.967Z,4015
2023-05-12T06:23:05.202Z,4006
2023-05-12T06:24:19.506Z,4025
2023-05-12T06:25:33.739Z,4060
2023-05-12T06:26:47.969Z,4093
2023-05-12T06:28:02.193Z,4195
2023-05-12T06:29:16.425Z,4240
2023-05-12T06:30:30.729Z,4216
2023-05-12T06:31:44.953Z,4106
2023-05-12T06:32:59.182Z,4111
2023-05-12T06:34:13.423Z,4380
2023-05-12T06:35:27.636Z,4511
2023-05-12T06:36:41.950Z,5234
2023-05-12T06:37:56.184Z,5459
2023-05-12T06:39:10.413Z,6176
2023-05-12T06:40:24.632Z,6599
2023-05-12T06:41:38.852Z,6752
2023-05-12T06:42:53.168Z,6425
2023-05-12T06:44:07.410Z,7119
2023-05-12T06:45:21.638Z,7406
2023-05-12T06:46:35.914Z,7261
2023-05-12T06:47:49.220Z,7348
2023-05-12T06:49:03.456Z,7796
2023-05-12T06:50:17.681Z,8093
2023-05-12T06:51:31.907Z,8248
2023-05-12T06:52:46.142Z,8133
2023-05-12T06:54:00.439Z,8299
2023-05-12T06:55:14.675Z,8355
2023-05-12T06:56:28.896Z,8383
2023-05-12T06:57:43.133Z,8581
2023-05-12T06:58:57.358Z,8685
2023-05-12T07:00:11.650Z,8797
2023-05-12T07:01:25.898Z,9121
2023-05-12T07:02:40.125Z,9780
2023-05-12T07:03:54.346Z,9650
2023-05-12T07:05:08.567Z,10081
2023-05-12T07:06:22.881Z,9646
2023-05-12T07:07:37.110Z,10054
2023-05-12T07:08:51.333Z,11513
2023-05-12T07:10:05.570Z,10790
2023-05-12T07:11:19.792Z,10618
2023-05-12T07:12:34.084Z,9974
2023-05-12T07:13:48.345Z,9564
2023-05-12T07:15:02.560Z,9080
2023-05-12T07:16:16.793Z,8543
2023-05-12T07:17:31.019Z,8423
2023-05-12T07:18:45.377Z,7946
2023-05-12T07:19:59.655Z,7624
2023-05-12T07:21:12.960Z,7451
2023-05-12T07:22:27.174Z,7361
2023-05-12T07:23:41.472Z,7110
2023-05-12T07:24:55.725Z,7127
2023-05-12T07:26:09.944Z,7218
2023-05-12T07:27:24.177Z,7205
2023-05-12T07:28:38.387Z,7241
2023-05-12T07:29:52.693Z,7168
2023-05-12T07:31:06.947Z,7122
2023-05-12T07:32:21.160Z,7209
2023-05-12T07:33:35.384Z,7320
2023-05-12T07:34:49.626Z,7350
2023-05-12T07:36:03.926Z,7389
2023-05-12T07:37:18.156Z,7371
2023-05-12T07:38:32.375Z,6928
2023-05-12T07:39:46.619Z,6423
2023-05-12T07:41:00.835Z,6207
2023-05-12T07:42:15.143Z,5681
2023-05-12T07:43:29.384Z,5511
2023-05-12T07:44:43.601Z,6006
2023-05-12T07:45:57.841Z,6488
2023-05-12T07:47:12.057Z,6570
2023-05-12T07:48:26.355Z,6817
2023-05-12T07:49:40.590Z,6806
2023-05-12T07:50:54.828Z,6804
2023-05-12T07:52:09.121Z,7197
2023-05-12T07:53:23.403Z,7325
2023-05-12T07:54:37.687Z,7669
2023-05-12T07:55:51.981Z,8291
2023-05-12T07:57:05.279Z,8596
2023-05-12T07:58:19.489Z,8640
2023-05-12T07:59:33.800Z,8811
2023-05-12T08:00:48.032Z,9024
2023-05-12T08:02:02.273Z,9010
2023-05-12T08:03:16.498Z,9356
2023-05-12T08:04:30.728Z,9525
2023-05-12T08:05:45.019Z,9942
2023-05-12T08:06:59.270Z,10283
2023-05-12T08:08:13.480Z,10364
2023-05-12T08:09:27.716Z,10737
2023-05-12T08:10:41.949Z,10884
2023-05-12T08:11:56.232Z,11409
2023-05-12T08:13:10.475Z,11555
2023-05-12T08:14:24.714Z,11503
2023-05-12T08:15:38.931Z,11589
2023-05-12T08:16:53.159Z,11527
2023-05-12T08:18:07.456Z,11293
2023-05-12T08:19:21.695Z,11279
2023-05-12T08:20:35.932Z,11064
2023-05-12T08:21:50.154Z,10765
2023-05-12T08:23:04.385Z,10680
2023-05-12T08:24:18.671Z,10209
2023-05-12T08:25:32.923Z,9702
2023-05-12T08:26:47.157Z,9327
2023-05-12T08:29:15.711Z,9053
2023-05-12T08:30:30.016Z,9404
2023-05-12T08:31:44.294Z,9439
2023-05-12T08:32:57.591Z,9791
2023-05-12T08:34:11.813Z,9811
2023-05-12T08:35:26.115Z,9968
2023-05-12T08:36:40.368Z,10013
2023-05-12T08:37:54.590Z,10049
2023-05-12T08:39:08.817Z,10179
2023-05-12T08:40:23.038Z,10338
2023-05-12T08:41:37.347Z,10588
2023-05-12T08:42:51.579Z,10719
2023-05-12T08:44:05.803Z,10855
2023-05-12T08:45:20.044Z,11119
2023-05-12T08:46:34.259Z,11272
2023-05-12T08:47:48.573Z,11873
2023-05-12T08:49:02.807Z,12564
2023-05-12T08:50:17.036Z,13203
2023-05-12T08:51:31.265Z,13626
2023-05-12T08:52:45.486Z,13764
2023-05-12T08:53:59.790Z,14081
2023-05-12T08:55:14.025Z,14398
2023-05-12T08:56:28.241Z,15142
2023-05-12T08:57:42.478Z,15346
2023-05-12T08:58:56.708Z,15299
2023-05-12T09:01:25.238Z,15913
2023-05-12T09:02:39.467Z,15551
2023-05-12T09:03:53.750Z,14903
2023-05-12T09:05:07.062Z,14831
2023-05-12T09:06:21.290Z,14509
2023-05-12T09:07:35.529Z,14325
2023-05-12T09:08:49.746Z,14850
2023-05-12T09:10:03.979Z,15137
2023-05-12T09:11:18.280Z,15347
2023-05-12T09:12:32.512Z,16106
2023-05-12T09:13:46.748Z,16659
2023-05-12T09:15:00.972Z,17377
2023-05-12T09:16:15.194Z,17291
2023-05-12T09:17:29.494Z,18541
2023-05-12T09:18:43.728Z,19736
2023-05-12T09:19:57.954Z,20973
2023-05-12T09:21:12.192Z,21429
2023-05-12T09:22:26.411Z,20291
2023-05-12T09:23:40.710Z,20555
2023-05-12T09:24:54.948Z,22938
2023-05-12T09:26:09.186Z,22611
2023-05-12T09:27:23.409Z,22666
2023-05-12T09:28:37.641Z,25519
2023-05-12T09:29:51.934Z,23979
2023-05-12T09:32:20.398Z,27737
2023-05-12T09:33:34.626Z,25959
2023-05-12T09:34:48.863Z,26385
2023-05-12T09:36:03.209Z,26150
2023-05-12T09:37:17.503Z,23604
2023-05-12T09:38:30.792Z,73618
2023-05-12T09:39:45.016Z,24882
2023-05-12T09:40:59.325Z,25384
2023-05-12T09:42:13.573Z,75432
2023-05-12T09:43:27.794Z,74958
2023-05-12T09:44:42.014Z,26212
2023-05-12T09:45:56.250Z,25294
2023-05-12T09:47:10.546Z,21402
2023-05-12T09:48:24.785Z,21438
2023-05-12T09:49:39.015Z,21980
2023-05-12T09:50:53.234Z,23145
2023-05-12T09:52:07.463Z,21942
2023-05-12T09:53:21.774Z,22014
2023-05-12T09:54:36.006Z,22521
2023-05-12T09:55:50.230Z,22313
2023-05-12T09:57:04.457Z,23385
2023-05-12T09:58:18.693Z,23552
2023-05-12T09:59:32.978Z,23610
2023-05-12T10:00:47.233Z,22620
2023-05-12T10:02:01.454Z,23259
2023-05-12T10:03:15.690Z,21956
2023-05-12T10:04:29.911Z,21920
2023-05-12T10:05:44.198Z,22138
2023-05-12T10:06:58.448Z,22380
2023-05-12T10:08:12.679Z,24070
2023-05-12T10:09:26.963Z,24638
2023-05-12T10:10:40.262Z,24373
2023-05-12T10:11:54.499Z,27523
2023-05-12T10:13:08.733Z,29679
2023-05-12T10:14:22.946Z,29038
2023-05-12T10:15:37.184Z,21865
2023-05-12T10:16:51.468Z,78133
2023-05-12T10:18:05.727Z,77920
2023-05-12T10:19:19.941Z,78555
2023-05-12T10:20:34.179Z,76478
2023-05-12T10:21:48.392Z,76301
2023-05-12T10:23:02.711Z,75876
2023-05-12T10:24:16.932Z,76025
2023-05-12T10:25:31.166Z,75909
2023-05-12T10:26:45.396Z,76277
2023-05-12T10:27:59.615Z,76150
2023-05-12T10:29:13.915Z,76259
2023-05-12T10:30:28.165Z,76250
2023-05-12T10:31:42.391Z,76339
2023-05-12T10:32:56.621Z,76171
2023-05-12T10:34:10.849Z,76997
2023-05-12T10:35:25.149Z,76280
2023-05-12T10:36:39.394Z,76328
2023-05-12T10:37:53.623Z,76310
2023-05-12T10:39:07.848Z,76229
2023-05-12T10:40:22.078Z,76164
2023-05-12T10:41:36.434Z,76376
2023-05-12T10:42:50.711Z,79376
2023-05-12T10:44:04.017Z,83144
2023-05-12T10:45:18.232Z,81313
2023-05-12T10:46:32.531Z,75226
2023-05-12T10:47:46.778Z,81268
2023-05-12T10:49:01.127Z,79494
2023-05-12T10:50:15.358Z,76325
2023-05-12T10:51:29.591Z,76067
2023-05-12T10:52:43.896Z,76158
2023-05-12T10:53:58.130Z,76388
2023-05-12T10:55:12.354Z,76381
2023-05-12T10:56:26.592Z,76206
2023-05-12T10:57:40.817Z,76354
2023-05-12T10:58:55.109Z,77226
2023-05-12T11:00:09.360Z,79435
2023-05-12T11:01:23.586Z,77247
2023-05-12T11:02:37.801Z,76466
2023-05-12T11:03:52.039Z,76328
2023-05-12T11:05:06.334Z,75884
2023-05-12T11:06:20.583Z,76116
2023-05-12T11:07:34.800Z,76617
2023-05-12T11:10:03.268Z,77167
2023-05-12T11:11:17.566Z,76623
2023-05-12T11:12:31.807Z,76732
2023-05-12T11:13:46.039Z,77782
2023-05-12T11:15:00.261Z,76508
2023-05-12T11:16:14.489Z,76388
2023-05-12T11:17:28.791Z,76510
2023-05-12T11:18:43.029Z,76508
2023-05-12T11:19:57.267Z,76321
2023-05-12T11:21:11.484Z,76239
2023-05-12T11:22:25.709Z,76384
2023-05-12T11:23:40.021Z,77764
2023-05-12T11:24:54.262Z,79012
2023-05-12T11:27:22.000Z,76350
2023-05-12T11:28:36.942Z,76506
2023-05-12T11:29:51.249Z,76390
2023-05-12T11:31:05.483Z,78110
2023-05-12T11:32:19.711Z,80040
2023-05-12T11:33:33.941Z,78489
2023-05-12T11:34:48.233Z,79442
2023-05-12T11:36:02.535Z,81892
2023-05-12T11:37:16.813Z,77270
2023-05-12T11:38:30.136Z,76749
2023-05-12T11:39:44.432Z,78671
2023-05-12T11:40:58.724Z,83040
2023-05-12T11:42:13.012Z,79174
2023-05-12T11:43:27.292Z,77016
2023-05-12T11:44:40.593Z,76629
2023-05-12T11:45:54.895Z,79583
2023-05-12T11:47:09.139Z,80559
2023-05-12T11:48:23.361Z,78093
2023-05-12T11:49:37.594Z,77608
2023-05-12T11:50:51.816Z,79259
2023-05-12T11:52:06.118Z,80065
2023-05-12T11:53:20.371Z,82564
2023-05-12T11:54:34.587Z,78539
2023-05-12T11:55:48.832Z,76380
2023-05-12T11:57:03.053Z,76195
2023-05-12T11:58:17.342Z,7132
2023-05-12T11:59:31.602Z,16799
2023-05-12T12:00:45.820Z,13051
2023-05-12T12:02:00.058Z,14970
2023-05-12T12:03:14.273Z,20159
2023-05-12T12:04:28.577Z,9898
2023-05-12T12:05:42.828Z,7452
2023-05-12T12:06:57.054Z,7728
2023-05-12T12:08:11.264Z,7968
2023-05-12T12:09:25.501Z,7945
2023-05-12T12:10:39.803Z,8097
2023-05-12T12:11:54.046Z,8435
2023-05-12T12:13:08.266Z,8854
2023-05-12T12:14:22.485Z,9990
2023-05-12T12:15:36.775Z,10234
2023-05-12T12:16:51.088Z,12128
2023-05-12T12:18:05.359Z,14024
2023-05-12T12:19:18.653Z,80434
2023-05-12T12:20:33.001Z,76261
2023-05-12T12:21:47.316Z,76377
2023-05-12T12:23:01.000Z,76310
2023-05-12T12:24:15.772Z,77171
2023-05-12T12:25:29.994Z,78152
2023-05-12T12:26:44.235Z,78741
2023-05-12T12:27:58.539Z,76428
2023-05-12T12:29:12.765Z,81382
2023-05-12T12:30:27.006Z,11123
2023-05-12T12:31:41.221Z,76374
2023-05-12T12:32:55.455Z,76762
2023-05-12T12:34:09.759Z,76880
2023-05-12T12:35:23.987Z,73378
2023-05-12T12:36:38.232Z,73518
2023-05-12T12:37:52.448Z,15624
2023-05-12T12:39:06.682Z,8121
2023-05-12T12:40:20.984Z,14697
2023-05-12T12:41:35.218Z,11188
2023-05-12T12:42:49.449Z,12375
2023-05-12T12:44:03.674Z,15229
2023-05-12T12:45:17.894Z,15953
2023-05-12T12:46:32.195Z,14109
2023-05-12T12:47:46.450Z,13657
2023-05-12T12:50:14.904Z,11388
2023-05-12T12:51:29.123Z,11042
2023-05-12T12:52:43.414Z,9934
2023-05-12T12:53:57.668Z,8946
2023-05-12T12:55:12.034Z,7817
2023-05-12T12:56:26.262Z,7153
2023-05-12T12:57:40.602Z,6996
2023-05-12T12:58:54.910Z,7031
2023-05-12T13:00:09.150Z,6828
2023-05-12T13:01:23.379Z,7476
2023-05-12T13:02:37.602Z,8244
2023-05-12T13:03:51.827Z,8606
2023-05-12T13:05:06.133Z,9385
2023-05-12T13:06:20.373Z,10340
2023-05-12T13:07:34.603Z,11458
2023-05-12T13:08:48.822Z,12315
2023-05-12T13:10:03.048Z,13371
2023-05-12T13:11:17.352Z,13095
2023-05-12T13:12:31.600Z,14212
2023-05-12T13:13:45.953Z,14210
2023-05-12T13:15:00.177Z,12987
2023-05-12T13:16:14.391Z,6395
2023-05-12T13:17:28.694Z,12865
2023-05-12T13:18:42.950Z,12291
2023-05-12T13:19:57.159Z,13309
2023-05-12T13:21:11.394Z,80930
2023-05-12T13:22:25.614Z,79705
2023-05-12T13:23:39.918Z,19641
2023-05-12T13:24:54.155Z,79994
2023-05-12T13:26:08.386Z,35026
2023-05-12T13:27:22.607Z,14287
2023-05-12T13:28:36.844Z,13454
2023-05-12T13:29:51.143Z,10606
2023-05-12T13:31:05.375Z,10130
2023-05-12T13:32:19.601Z,10662
2023-05-12T13:33:33.831Z,11796
2023-05-12T13:34:48.211Z,11886
2023-05-12T13:36:02.511Z,5767
2023-05-12T13:37:16.743Z,11859
2023-05-12T13:38:30.965Z,10270
2023-05-12T13:39:45.197Z,10051
2023-05-12T13:40:59.431Z,10523
2023-05-12T13:42:13.732Z,11530
2023-05-12T13:43:27.975Z,7014
2023-05-12T13:44:42.192Z,14332
2023-05-12T13:45:56.427Z,12379
2023-05-12T13:47:10.646Z,7041
2023-05-12T13:48:24.941Z,84387
2023-05-12T13:49:39.196Z,70786
2023-05-12T13:50:53.418Z,76959
2023-05-12T13:52:07.652Z,83577
2023-05-12T13:53:21.869Z,80840
2023-05-12T13:54:36.174Z,76800
2023-05-12T13:55:50.407Z,80461
2023-05-12T13:57:04.632Z,27402
2023-05-12T13:58:18.854Z,79755
2023-05-12T13:59:33.098Z,29243
2023-05-12T14:00:47.398Z,9459
2023-05-12T14:02:01.632Z,9919
2023-05-12T14:03:15.870Z,15364
2023-05-12T14:04:30.088Z,12395
2023-05-12T14:05:44.373Z,8341
2023-05-12T14:06:58.680Z,7517
2023-05-12T14:08:12.948Z,7502
2023-05-12T14:09:26.251Z,7641
2023-05-12T14:10:40.481Z,7770
2023-05-12T14:11:54.778Z,8151
2023-05-12T14:13:09.020Z,8674
2023-05-12T14:14:23.252Z,9080
2023-05-12T14:15:37.471Z,9375
2023-05-12T14:16:51.697Z,9469
2023-05-12T14:18:05.988Z,9778
2023-05-12T14:19:20.243Z,9875
2023-05-12T14:20:34.475Z,9335
2023-05-12T14:21:48.685Z,9383
2023-05-12T14:23:02.922Z,10053
2023-05-12T14:24:17.211Z,9174
2023-05-12T14:25:31.468Z,18745
2023-05-12T14:26:45.680Z,26070
2023-05-12T14:27:59.909Z,4522
2023-05-12T14:29:14.138Z,6207
2023-05-12T14:30:28.443Z,80640
2023-05-12T14:31:42.674Z,5593
2023-05-12T14:32:56.905Z,79559
2023-05-12T14:34:11.129Z,80305
2023-05-12T14:35:25.354Z,79310
2023-05-12T14:36:39.669Z,78671
2023-05-12T14:37:53.910Z,77651
2023-05-12T14:39:08.126Z,80872
2023-05-12T14:40:22.422Z,75228
2023-05-12T14:41:35.771Z,18200
2023-05-12T14:42:50.057Z,80214
2023-05-12T14:44:03.399Z,32103
2023-05-12T14:45:17.675Z,24314
2023-05-12T14:46:31.979Z,79989
2023-05-12T14:47:46.262Z,79645
2023-05-12T14:49:00.550Z,24489
2023-05-12T14:50:14.828Z,10405
2023-05-12T14:51:28.176Z,9716
2023-05-12T14:52:42.468Z,9637
2023-05-12T14:53:55.794Z,10256
2023-05-12T14:55:10.088Z,9892
2023-05-12T14:56:24.384Z,9007
2023-05-12T14:57:38.663Z,9012
2023-05-12T14:58:51.963Z,9303
2023-05-12T15:00:06.180Z,8639
2023-05-12T15:01:20.481Z,8081
2023-05-12T15:02:34.734Z,7499
2023-05-12T15:03:48.956Z,7204
2023-05-12T15:05:03.171Z,7456
2023-05-12T15:06:17.407Z,7642
2023-05-12T15:07:31.705Z,7311
2023-05-12T15:08:45.941Z,7063
2023-05-12T15:10:00.180Z,6895
2023-05-12T15:11:14.400Z,6533
2023-05-12T15:12:28.632Z,6492
2023-05-12T15:13:42.922Z,6228
2023-05-12T15:14:57.162Z,5782
2023-05-12T15:16:11.395Z,5569
2023-05-12T15:17:25.631Z,5585
2023-05-12T15:18:39.838Z,5670
2023-05-12T15:19:54.157Z,5763
2023-05-12T15:21:08.391Z,5748
2023-05-12T15:22:22.611Z,5870
2023-05-12T15:23:36.846Z,6258
2023-05-12T15:24:51.071Z,6360
2023-05-12T15:26:05.373Z,6726
2023-05-12T15:27:19.600Z,7056
2023-05-12T15:28:33.838Z,7289
2023-05-12T15:29:48.116Z,7473
2023-05-12T15:31:01.422Z,7564
2023-05-12T15:32:15.655Z,7900
2023-05-12T15:33:29.886Z,8321
2023-05-12T15:34:44.114Z,8720
2023-05-12T15:35:58.345Z,8693
2023-05-12T15:37:12.629Z,8735
2023-05-12T15:38:26.868Z,8680
2023-05-12T15:39:41.110Z,8591
2023-05-12T15:40:55.336Z,8182
2023-05-12T15:42:09.553Z,7901
2023-05-12T15:43:23.863Z,7048
2023-05-12T15:44:38.091Z,5377
2023-05-12T15:45:52.311Z,3853
2023-05-12T15:47:06.547Z,2945
2023-05-12T15:48:20.764Z,2574
2023-05-12T15:49:35.084Z,1876
2023-05-12T15:50:49.310Z,1707
2023-05-12T15:52:03.548Z,1965
2023-05-12T15:53:17.888Z,2245
2023-05-12T15:54:32.121Z,2410
2023-05-12T15:55:46.424Z,2782
2023-05-12T15:57:00.653Z,3095
2023-05-12T15:58:14.886Z,3391
2023-05-12T15:59:29.105Z,3663
2023-05-12T16:00:43.481Z,3803
2023-05-12T16:01:57.788Z,3902
2023-05-12T16:03:12.025Z,3937
2023-05-12T16:04:26.252Z,3957
2023-05-12T16:05:40.471Z,3989
2023-05-12T16:06:54.706Z,4081
2023-05-12T16:08:09.004Z,4036
2023-05-12T16:09:23.242Z,3959
2023-05-12T16:10:37.484Z,3900
2023-05-12T16:11:51.703Z,3900
2023-05-12T16:13:06.043Z,3935
2023-05-12T16:14:20.358Z,4022
2023-05-12T16:15:34.588Z,4085
2023-05-12T16:16:48.815Z,4124
2023-05-12T16:18:03.049Z,4114
2023-05-12T16:19:17.263Z,4051
2023-05-12T16:20:31.565Z,4014
2023-05-12T16:21:45.820Z,3974
2023-05-12T16:23:00.041Z,3917
2023-05-12T16:24:14.274Z,3941
2023-05-12T16:25:28.493Z,3818
2023-05-12T16:26:42.791Z,3572
2023-05-12T16:27:57.031Z,3697
2023-05-12T16:29:11.250Z,3664
2023-05-12T16:30:25.482Z,3679
2023-05-12T16:31:39.718Z,3667
2023-05-12T16:32:54.003Z,3624
2023-05-12T16:34:08.000Z,3571
2023-05-12T16:35:22.000Z,3547
2023-05-12T16:36:36.696Z,3777
2023-05-12T16:37:50.936Z,3744
2023-05-12T16:39:05.223Z,3557
2023-05-12T16:40:19.477Z,3735
2023-05-12T16:41:33.695Z,3698
2023-05-12T16:42:47.930Z,3666
2023-05-12T16:44:02.149Z,3690
2023-05-12T16:45:16.453Z,3472
2023-05-12T16:46:30.691Z,3593
2023-05-12T16:47:44.923Z,3502